Time;durP1;ratioP1;P1;durP2;ratioP2;P2;SDS_P1;SDS_P2;PMS_P1;PMS_P2;Temp;Humidity;BMP_temperature;BMP_pressure;BME280_temperature;BME280_humidity;BME280_pressure;Samples;Min_cycle;Max_cycle;Signal;HPM_P1;HPM_P2
2024/02/22 00:05:48;;;;;;;12.50;9.30;;;;;;;3.40;100.00;98938.14;451315;1252;139549;-54
2024/02/22 00:15:55;;;;;;;14.30;9.80;;;;;;;3.20;100.00;98924.13;451477;1252;139658;-63
2024/02/22 00:26:01;;;;;;;19.10;11.80;;;;;;;3.04;100.00;98900.64;451378;1252;139685;-63
2024/02/22 00:36:08;;;;;;;14.40;11.80;;;;;;;2.90;100.00;98880.66;451624;1253;139964;-63
2024/02/22 00:46:14;;;;;;;21.30;13.30;;;;;;;2.79;100.00;98861.42;451318;1252;140271;-63
2024/02/22 00:56:20;;;;;;;16.70;10.00;;;;;;;2.68;100.00;98848.75;451480;1254;140114;-53
2024/02/22 01:06:29;;;;;;;16.90;8.80;;;;;;;2.59;100.00;98837.77;451612;1252;137998;-49
2024/02/22 01:16:35;;;;;;;11.40;9.90;;;;;;;2.49;100.00;98808.98;451431;1253;139461;-46
2024/02/22 01:26:41;;;;;;;10.40;8.10;;;;;;;2.45;100.00;98792.55;451509;1252;139703;-62
2024/02/22 01:36:47;;;;;;;14.00;7.90;;;;;;;2.42;100.00;98780.41;451752;1253;139190;-59
2024/02/22 01:46:54;;;;;;;13.00;8.50;;;;;;;2.40;100.00;98777.92;451543;1253;139575;-46
2024/02/22 01:57:00;;;;;;;15.80;9.00;;;;;;;2.38;100.00;98758.82;451592;1253;140199;-47
2024/02/22 02:07:06;;;;;;;13.10;9.50;;;;;;;2.36;100.00;98737.63;451621;1253;139627;-46
2024/02/22 02:17:14;;;;;;;9.90;7.80;;;;;;;2.36;100.00;98722.98;451402;1253;139803;-46
2024/02/22 02:27:20;;;;;;;11.50;6.90;;;;;;;2.38;100.00;98709.58;451598;1253;139559;-46
2024/02/22 02:37:28;;;;;;;9.30;6.10;;;;;;;2.44;100.00;98694.80;451527;1254;140203;-50
2024/02/22 02:47:35;;;;;;;8.10;6.60;;;;;;;2.47;100.00;98678.77;451715;1252;139043;-55
2024/02/22 02:57:44;;;;;;;9.30;5.30;;;;;;;2.54;100.00;98664.67;451609;1256;140406;-54
2024/02/22 03:07:50;;;;;;;8.50;5.40;;;;;;;2.62;100.00;98651.84;451469;1253;139743;-48
2024/02/22 03:17:57;;;;;;;9.60;4.80;;;;;;;2.72;100.00;98639.99;451580;1255;138906;-50
2024/02/22 03:28:06;;;;;;;11.10;5.60;;;;;;;2.79;100.00;98628.07;451618;1256;139196;-47
2024/02/22 03:38:12;;;;;;;7.30;4.90;;;;;;;2.89;100.00;98617.74;451684;1254;139020;-46
2024/02/22 03:48:18;;;;;;;8.00;4.70;;;;;;;3.01;100.00;98608.86;451652;1254;138181;-59
2024/02/22 03:58:26;;;;;;;5.50;4.10;;;;;;;3.11;100.00;98606.48;451596;1254;139804;-62
2024/02/22 04:08:33;;;;;;;8.20;4.70;;;;;;;3.20;100.00;98598.94;451514;1253;140625;-46
2024/02/22 04:18:39;;;;;;;12.90;5.00;;;;;;;3.28;100.00;98586.64;451638;1253;139428;-46
2024/02/22 04:28:46;;;;;;;7.90;4.70;;;;;;;3.34;100.00;98569.23;451527;1253;140395;-49
2024/02/22 04:38:54;;;;;;;6.50;4.20;;;;;;;3.39;100.00;98549.60;451498;1253;139908;-63
2024/02/22 04:49:05;;;;;;;6.20;4.40;;;;;;;3.44;100.00;98538.25;451653;1252;139841;-64
2024/02/22 04:59:11;;;;;;;7.70;5.00;;;;;;;3.50;100.00;98524.98;451576;1255;139700;-53
2024/02/22 05:09:18;;;;;;;6.30;4.70;;;;;;;3.59;100.00;98514.31;451478;1254;140072;-54
2024/02/22 05:19:26;;;;;;;6.30;4.40;;;;;;;3.69;100.00;98501.12;451714;1253;139090;-50
2024/02/22 05:29:32;;;;;;;7.40;4.60;;;;;;;3.82;100.00;98497.52;451557;1254;140019;-47
2024/02/22 05:39:38;;;;;;;3.80;3.50;;;;;;;3.95;100.00;98493.20;451606;1254;140611;-58
2024/02/22 05:49:44;;;;;;;5.00;3.50;;;;;;;4.05;100.00;98480.49;451564;1253;139901;-60
2024/02/22 05:59:50;;;;;;;7.10;4.70;;;;;;;4.15;100.00;98461.63;451497;1253;139695;-51
2024/02/22 06:09:56;;;;;;;5.40;3.80;;;;;;;4.20;100.00;98456.46;451266;1253;139929;-48
2024/02/22 06:20:05;;;;;;;12.50;6.40;;;;;;;4.31;100.00;98447.20;451265;1254;139375;-57
2024/02/22 06:30:15;;;;;;;8.50;5.20;;;;;;;4.51;100.00;98439.02;451503;1254;140435;-57
2024/02/22 06:40:21;;;;;;;9.40;5.20;;;;;;;4.70;100.00;98429.05;447553;1255;5100700;-57
2024/02/22 06:50:29;;;;;;;12.20;5.90;;;;;;;5.02;100.00;98413.48;451448;1253;139717;-56
2024/02/22 07:00:35;;;;;;;10.50;6.10;;;;;;;5.46;100.00;98401.47;451494;1256;139719;-58
2024/02/22 07:10:41;;;;;;;8.90;5.90;;;;;;;5.66;100.00;98394.36;451415;1256;139769;-59
2024/02/22 07:20:49;;;;;;;7.60;5.00;;;;;;;5.75;100.00;98388.23;451364;1255;139004;-59
2024/02/22 07:30:55;;;;;;;7.70;4.60;;;;;;;5.94;100.00;98375.05;451398;1254;139563;-60
2024/02/22 07:41:05;;;;;;;7.10;4.80;;;;;;;6.16;100.00;98372.62;451134;1254;139906;-60
2024/02/22 07:51:12;;;;;;;10.60;5.90;;;;;;;6.33;100.00;98361.08;451383;1254;139506;-56
2024/02/22 08:01:18;;;;;;;8.00;5.00;;;;;;;6.50;100.00;98343.60;451354;1254;139672;-54
2024/02/22 08:11:26;;;;;;;9.30;4.50;;;;;;;6.71;100.00;98326.55;451369;1254;138808;-67
2024/02/22 08:21:32;;;;;;;7.30;4.40;;;;;;;6.82;100.00;98316.92;451467;1256;139742;-78
2024/02/22 08:31:38;;;;;;;6.50;5.30;;;;;;;7.01;100.00;98310.10;447560;1254;140332;-69
2024/02/22 08:41:44;;;;;;;6.90;4.80;;;;;;;7.17;100.00;98294.69;436469;1257;138883;-61
2024/02/22 08:51:50;;;;;;;5.60;4.40;;;;;;;7.44;100.00;98279.19;435884;1257;139990;-69
2024/02/22 09:01:57;;;;;;;6.00;4.10;;;;;;;7.70;100.00;98265.88;436233;1257;139591;-68
2024/02/22 09:12:03;;;;;;;10.40;5.30;;;;;;;7.85;100.00;98254.98;451534;1254;139633;-67
2024/02/22 09:22:12;;;;;;;8.80;5.70;;;;;;;8.00;100.00;98253.59;451493;1254;140125;-73
2024/02/22 09:32:18;;;;;;;5.40;4.60;;;;;;;8.38;100.00;98234.02;451262;1254;139922;-64
2024/02/22 09:42:26;;;;;;;6.00;4.00;;;;;;;8.73;100.00;98216.86;451325;1254;139698;-71
2024/02/22 09:52:34;;;;;;;5.50;3.40;;;;;;;9.31;100.00;98190.98;451232;1254;139483;-67
2024/02/22 10:02:46;;;;;;;6.50;3.20;;;;;;;9.72;100.00;98168.42;451239;1253;140276;-51
2024/02/22 10:12:52;;;;;;;8.80;3.70;;;;;;;9.90;100.00;98158.05;451515;1254;139561;-54
2024/02/22 10:23:08;;;;;;;5.20;2.90;;;;;;;9.86;100.00;98156.42;451278;1253;140138;-63
2024/02/22 10:33:15;;;;;;;4.20;2.40;;;;;;;10.01;100.00;98141.92;451411;1253;140134;-62
2024/02/22 10:43:22;;;;;;;4.60;3.00;;;;;;;9.97;100.00;98137.39;449639;1253;139759;-79
2024/02/22 10:53:31;;;;;;;6.40;2.80;;;;;;;9.60;100.00;98128.56;438149;1257;140096;-78
2024/02/22 11:03:38;;;;;;;3.10;2.30;;;;;;;9.22;100.00;98112.47;437339;1257;139900;-76
2024/02/22 11:13:43;;;;;;;;;;;;;;;8.84;100.00;98100.33;451548;1253;139153;-70
2024/02/22 11:23:50;;;;;;;8.10;7.30;;;;;;;8.53;100.00;98084.45;451587;1252;125793;-61
2024/02/22 11:33:56;;;;;;;8.40;4.80;;;;;;;8.27;100.00;98075.85;451411;1252;139874;-59
2024/02/22 11:44:07;;;;;;;8.30;5.80;;;;;;;7.99;100.00;98075.02;451477;1252;140508;-59
2024/02/22 11:54:19;;;;;;;8.70;5.40;;;;;;;7.70;100.00;98065.38;451531;1252;139384;-58
2024/02/22 12:04:26;;;;;;;8.30;6.70;;;;;;;7.43;100.00;98059.19;451282;1252;139475;-74
2024/02/22 12:14:32;;;;;;;10.90;6.80;;;;;;;7.23;100.00;98050.75;449240;1252;139550;-77
2024/02/22 12:24:38;;;;;;;8.40;6.70;;;;;;;7.12;100.00;98036.08;437216;1253;139702;-60
2024/02/22 12:34:44;;;;;;;9.00;7.80;;;;;;;7.05;100.00;98022.58;437094;1254;139224;-59
2024/02/22 12:44:50;;;;;;;11.20;7.70;;;;;;;7.00;100.00;98010.23;436208;1254;139274;-58
2024/02/22 12:54:57;;;;;;;10.70;7.40;;;;;;;6.95;100.00;97993.88;436498;1254;139222;-52
2024/02/22 13:05:07;;;;;;;13.00;9.20;;;;;;;6.85;100.00;97971.96;436066;1254;139356;-51
2024/02/22 13:15:15;;;;;;;11.80;9.70;;;;;;;6.74;100.00;97955.91;451324;1252;139561;-50
2024/02/22 13:25:21;;;;;;;12.50;9.00;;;;;;;6.73;100.00;97932.35;451461;1252;138991;-54
2024/02/22 13:35:31;;;;;;;14.80;9.30;;;;;;;6.71;100.00;97913.71;451484;1252;139100;-62
2024/02/22 13:45:44;;;;;;;16.30;10.60;;;;;;;6.67;100.00;97899.38;451490;1252;139880;-63
2024/02/22 13:55:53;;;;;;;14.50;11.00;;;;;;;6.73;100.00;97873.73;451449;1252;140863;-52
2024/02/22 14:05:59;;;;;;;17.60;11.00;;;;;;;6.80;100.00;97859.14;451481;1252;139173;-52
2024/02/22 14:16:09;;;;;;;14.10;10.80;;;;;;;6.88;100.00;97849.48;451486;1252;140382;-54
2024/02/22 14:26:15;;;;;;;15.20;10.10;;;;;;;6.88;100.00;97832.82;451407;1252;140284;-53
2024/02/22 14:36:21;;;;;;;15.80;11.60;;;;;;;6.82;100.00;97809.06;451591;1252;140088;-52
2024/02/22 14:46:29;;;;;;;16.20;11.10;;;;;;;6.82;100.00;97797.92;451519;1252;139717;-54
2024/02/22 14:56:35;;;;;;;14.60;11.30;;;;;;;6.83;100.00;97778.05;451581;1252;139288;-53
2024/02/22 15:06:44;;;;;;;15.60;9.10;;;;;;;6.85;100.00;97760.83;451608;1252;140038;-66
2024/02/22 15:16:51;;;;;;;11.50;9.60;;;;;;;6.83;100.00;97746.73;451540;1252;139491;-66
2024/02/22 15:27:03;;;;;;;12.40;9.70;;;;;;;6.81;100.00;97732.27;451480;1253;139676;-63
2024/02/22 15:37:09;;;;;;;12.40;9.20;;;;;;;6.79;100.00;97718.19;451563;1253;140109;-62
2024/02/22 15:47:15;;;;;;;11.80;9.10;;;;;;;6.77;100.00;97701.80;451458;1252;139622;-58
2024/02/22 15:57:23;;;;;;;11.60;8.50;;;;;;;6.72;100.00;97684.98;451620;1252;139840;-50
2024/02/22 16:07:29;;;;;;;11.70;9.60;;;;;;;6.66;100.00;97674.81;451584;1253;139646;-63
2024/02/22 16:17:36;;;;;;;14.10;9.90;;;;;;;6.64;100.00;97668.06;445064;1253;139064;-72
2024/02/22 16:27:43;;;;;;;16.00;11.90;;;;;;;6.66;100.00;97665.09;451328;1252;139567;-60
2024/02/22 16:37:49;;;;;;;12.60;10.40;;;;;;;6.69;100.00;97652.71;451337;1254;139801;-82
2024/02/22 16:47:57;;;;;;;13.50;10.60;;;;;;;6.75;100.00;97645.27;451477;1253;139946;-67
2024/02/22 16:58:03;;;;;;;15.00;10.10;;;;;;;6.84;100.00;97643.71;451395;1252;139565;-60
2024/02/22 17:08:09;;;;;;;;;;;;;;;6.95;100.00;97641.61;451484;1252;140258;-60
2024/02/22 17:18:15;;;;;;;14.90;9.20;;;;;;;6.99;100.00;97634.63;451649;1252;125342;-61
2024/02/22 17:28:22;;;;;;;11.30;8.80;;;;;;;7.03;100.00;97618.18;451595;1252;139615;-65
2024/02/22 17:38:30;;;;;;;14.80;8.00;;;;;;;7.05;100.00;97602.86;451459;1252;140300;-65
2024/02/22 17:48:37;;;;;;;11.30;8.20;;;;;;;7.06;100.00;97598.12;451687;1253;139940;-60
2024/02/22 17:58:44;;;;;;;13.40;11.00;;;;;;;7.06;100.00;97579.33;451524;1252;139281;-59
2024/02/22 18:09:01;;;;;;;18.80;11.30;;;;;;;6.99;100.00;97567.39;451634;1253;139739;-57
2024/02/22 18:19:07;;;;;;;12.90;9.40;;;;;;;6.86;100.00;97560.95;451669;1252;139233;-61
2024/02/22 18:29:13;;;;;;;12.80;8.80;;;;;;;6.78;100.00;97551.80;451578;1253;139557;-59
2024/02/22 18:39:24;;;;;;;13.30;9.90;;;;;;;6.76;100.00;97542.05;447609;1253;5098182;-60
2024/02/22 18:49:32;;;;;;;15.40;9.80;;;;;;;6.77;100.00;97524.27;451477;1253;139682;-60
2024/02/22 18:59:42;;;;;;;13.00;10.30;;;;;;;6.81;100.00;97512.98;451734;1252;139846;-60
2024/02/22 19:09:48;;;;;;;11.50;9.30;;;;;;;6.85;100.00;97504.77;451558;1253;139684;-60
2024/02/22 19:19:58;;;;;;;11.80;10.50;;;;;;;6.87;100.00;97495.57;451500;1253;139487;-61
2024/02/22 19:30:04;;;;;;;13.60;11.30;;;;;;;6.89;100.00;97483.47;451643;1253;140006;-59
2024/02/22 19:40:12;;;;;;;13.50;10.60;;;;;;;6.90;100.00;97475.02;451326;1252;139598;-60
2024/02/22 19:50:18;;;;;;;13.00;10.20;;;;;;;6.91;100.00;97455.33;451442;1252;139623;-61
2024/02/22 20:00:26;;;;;;;16.20;12.40;;;;;;;6.87;100.00;97441.35;451459;1253;139738;-67
2024/02/22 20:10:32;;;;;;;15.00;10.50;;;;;;;6.84;100.00;97433.07;451171;1255;141310;-66
2024/02/22 20:20:39;;;;;;;13.60;8.90;;;;;;;6.83;100.00;97424.66;451462;1253;139672;-53
2024/02/22 20:30:45;;;;;;;12.70;9.40;;;;;;;6.80;100.00;97418.27;451622;1253;139488;-53
2024/02/22 20:40:55;;;;;;;12.20;9.00;;;;;;;6.69;100.00;97414.47;451477;1253;139408;-70
2024/02/22 20:51:01;;;;;;;12.00;9.60;;;;;;;6.61;100.00;97408.87;451526;1253;139657;-67
2024/02/22 21:01:07;;;;;;;10.10;8.20;;;;;;;6.66;100.00;97400.78;451599;1253;139007;-63
2024/02/22 21:11:15;;;;;;;12.40;9.10;;;;;;;6.79;100.00;97390.39;451388;1256;140397;-57
2024/02/22 21:21:21;;;;;;;12.80;9.00;;;;;;;6.93;100.00;97386.79;440656;1256;140180;-56
2024/02/22 21:31:28;;;;;;;13.40;8.40;;;;;;;7.06;100.00;97383.58;437985;1256;140018;-56
2024/02/22 21:41:34;;;;;;;12.40;7.80;;;;;;;7.13;100.00;97374.29;451390;1252;139216;-57
2024/02/22 21:51:46;;;;;;;11.90;7.60;;;;;;;7.21;100.00;97375.86;451427;1253;139727;-57
2024/02/22 22:01:52;;;;;;;9.70;8.10;;;;;;;7.29;100.00;97378.64;448853;1255;139243;-56
2024/02/22 22:11:58;;;;;;;9.00;7.70;;;;;;;7.37;100.00;97369.11;437477;1257;139745;-59
2024/02/22 22:22:04;;;;;;;14.60;8.00;;;;;;;7.37;100.00;97350.15;451388;1254;139778;-58
2024/02/22 22:32:13;;;;;;;9.10;7.20;;;;;;;7.34;100.00;97346.76;451514;1253;139769;-63
2024/02/22 22:42:19;;;;;;;12.80;8.20;;;;;;;7.29;100.00;97344.73;451540;1253;139406;-63
2024/02/22 22:52:25;;;;;;;11.90;8.70;;;;;;;7.21;100.00;97334.48;451607;1252;139542;-63
2024/02/22 23:02:31;;;;;;;12.90;9.20;;;;;;;7.09;100.00;97329.55;451493;1254;140164;-62
2024/02/22 23:12:37;;;;;;;14.90;10.30;;;;;;;7.00;100.00;97327.88;451630;1252;139756;-65
2024/02/22 23:22:44;;;;;;;13.40;9.60;;;;;;;6.95;100.00;97329.40;451509;1256;139852;-58
2024/02/22 23:32:50;;;;;;;19.50;13.20;;;;;;;6.91;100.00;97327.10;450883;1254;139497;-55
2024/02/22 23:42:56;;;;;;;14.20;9.00;;;;;;;6.91;100.00;97320.72;451261;1253;139767;-55
2024/02/22 23:53:02;;;;;;;12.10;7.80;;;;;;;6.91;100.00;97318.39;451280;1256;140225;-54
